createdAt,value
2018-08-31T01:00:29.391Z,2.50
2018-08-31T01:01:29.334Z,2.80
2018-08-31T01:02:29.323Z,2.60
2018-08-31T01:03:29.318Z,2.20
2018-08-31T01:04:29.343Z,2.70
2018-08-31T01:05:29.292Z,2.70
2018-08-31T01:06:29.281Z,2.80
2018-08-31T01:07:29.265Z,2.70
2018-08-31T01:08:29.253Z,2.70
2018-08-31T01:09:29.303Z,2.60
2018-08-31T01:10:29.230Z,2.80
2018-08-31T01:11:29.223Z,2.70
2018-08-31T01:12:29.209Z,2.60
2018-08-31T01:13:29.199Z,2.70
2018-08-31T01:14:29.186Z,2.80
2018-08-31T01:15:29.220Z,3.00
2018-08-31T01:16:29.167Z,3.10
2018-08-31T01:17:29.163Z,2.90
2018-08-31T01:18:29.142Z,3.30
2018-08-31T01:19:29.132Z,2.90
2018-08-31T01:20:29.167Z,3.00
2018-08-31T01:21:29.108Z,3.00
2018-08-31T01:22:29.121Z,3.10
2018-08-31T01:23:29.086Z,3.10
2018-08-31T01:24:29.076Z,2.80
2018-08-31T01:25:29.108Z,3.00
2018-08-31T01:26:29.052Z,3.20
2018-08-31T01:27:29.043Z,3.20
2018-08-31T01:28:29.032Z,2.80
2018-08-31T01:29:29.018Z,3.00
2018-08-31T01:30:29.054Z,3.20
2018-08-31T01:31:29.000Z,3.30
2018-08-31T01:32:28.985Z,3.30
2018-08-31T01:33:28.974Z,3.10
2018-08-31T01:34:28.965Z,3.50
2018-08-31T01:35:28.999Z,3.10
2018-08-31T01:36:28.942Z,3.00
2018-08-31T01:37:28.938Z,3.30
2018-08-31T01:38:28.920Z,3.30
2018-08-31T01:39:28.906Z,3.20
2018-08-31T01:40:28.945Z,3.10
2018-08-31T01:41:28.886Z,3.20
2018-08-31T01:42:28.876Z,3.00
2018-08-31T01:43:28.865Z,3.00
2018-08-31T01:44:28.851Z,3.20
2018-08-31T01:45:28.897Z,3.00
2018-08-31T01:46:28.829Z,2.90
2018-08-31T01:47:28.818Z,3.10
2018-08-31T01:48:28.808Z,3.10
2018-08-31T01:49:28.801Z,3.10
2018-08-31T01:50:28.829Z,3.10
2018-08-31T01:51:28.774Z,3.20
2018-08-31T01:52:28.761Z,3.00
2018-08-31T01:53:28.749Z,2.90
2018-08-31T01:54:28.741Z,2.80
2018-08-31T01:55:28.775Z,2.80
2018-08-31T01:56:28.717Z,2.70
2018-08-31T01:57:28.706Z,2.60
2018-08-31T01:58:28.697Z,2.50
2018-08-31T01:59:28.685Z,2.40
2018-08-31T02:00:28.720Z,2.40
2018-08-31T02:01:28.665Z,2.90
2018-08-31T02:02:28.651Z,3.00
2018-08-31T02:03:28.640Z,2.70
2018-08-31T02:04:28.629Z,2.90
2018-08-31T02:05:28.671Z,2.60
2018-08-31T02:06:28.607Z,3.00
2018-08-31T02:07:28.599Z,2.90
2018-08-31T02:08:28.589Z,2.70
2018-08-31T02:09:28.571Z,2.70
2018-08-31T02:10:28.560Z,2.90
2018-08-31T02:11:28.595Z,2.90
2018-08-31T02:12:28.539Z,3.00
2018-08-31T02:13:28.527Z,3.00
2018-08-31T02:14:28.515Z,2.90
2018-08-31T02:15:28.505Z,3.20
2018-08-31T02:16:28.538Z,3.10
2018-08-31T02:17:28.485Z,3.20
2018-08-31T02:18:28.471Z,3.20
2018-08-31T02:19:28.462Z,3.30
2018-08-31T02:20:28.452Z,3.00
2018-08-31T02:21:28.492Z,3.30
2018-08-31T02:22:28.432Z,2.80
2018-08-31T02:23:28.417Z,3.20
2018-08-31T02:24:28.410Z,2.70
2018-08-31T02:25:28.395Z,3.00
2018-08-31T02:26:28.427Z,3.10
2018-08-31T02:27:28.379Z,2.90
2018-08-31T02:28:28.364Z,3.30
2018-08-31T02:29:28.352Z,3.20
2018-08-31T02:30:28.339Z,3.00
2018-08-31T02:31:28.373Z,3.00
2018-08-31T02:32:28.320Z,2.80
2018-08-31T02:33:28.309Z,2.90
2018-08-31T02:34:28.301Z,3.30
2018-08-31T02:35:28.282Z,3.20
2018-08-31T02:36:28.328Z,3.10
2018-08-31T02:37:28.261Z,3.50
2018-08-31T02:38:28.255Z,3.20
2018-08-31T02:39:28.240Z,3.50
2018-08-31T02:40:28.225Z,3.10
2018-08-31T02:41:28.261Z,3.30
2018-08-31T02:42:28.201Z,3.50
2018-08-31T02:43:28.191Z,3.60
2018-08-31T02:44:28.180Z,3.40
2018-08-31T02:45:28.170Z,3.50
2018-08-31T02:46:28.209Z,3.00
2018-08-31T02:47:28.161Z,3.70
2018-08-31T02:48:28.133Z,3.30
2018-08-31T02:49:28.127Z,3.20
2018-08-31T02:50:28.115Z,3.30
2018-08-31T02:51:28.149Z,3.20
2018-08-31T02:52:28.094Z,3.90
2018-08-31T02:53:28.086Z,3.60
2018-08-31T02:54:28.071Z,3.60
2018-08-31T02:55:28.054Z,3.30
2018-08-31T02:56:28.089Z,3.30
2018-08-31T02:57:28.034Z,3.50
2018-08-31T02:58:28.022Z,3.40
2018-08-31T02:59:28.023Z,3.30
2018-08-31T03:00:28.001Z,3.40
2018-08-31T03:01:28.042Z,3.30
2018-08-31T03:02:27.978Z,3.40
2018-08-31T03:03:27.965Z,3.10
2018-08-31T03:04:27.959Z,3.30
2018-08-31T03:05:27.947Z,3.20
2018-08-31T03:06:27.978Z,3.30
2018-08-31T03:07:27.924Z,3.40
2018-08-31T03:08:27.910Z,3.50
2018-08-31T03:09:27.897Z,3.40
2018-08-31T03:10:27.890Z,3.60
2018-08-31T03:11:27.930Z,3.40
2018-08-31T03:12:27.864Z,3.50
2018-08-31T03:13:27.857Z,3.30
2018-08-31T03:14:27.840Z,3.40
2018-08-31T03:15:27.829Z,4.00
2018-08-31T03:16:27.863Z,3.50
2018-08-31T03:17:27.807Z,3.90
2018-08-31T03:18:27.798Z,3.30
2018-08-31T03:19:27.788Z,3.60
2018-08-31T03:20:27.773Z,3.40
2018-08-31T03:21:27.949Z,3.50
2018-08-31T03:22:27.754Z,3.50
2018-08-31T03:23:27.738Z,3.50
2018-08-31T03:24:27.730Z,3.50
2018-08-31T03:25:27.717Z,3.50
2018-08-31T03:26:27.753Z,3.40
2018-08-31T03:27:27.697Z,3.40
2018-08-31T03:28:27.684Z,3.80
2018-08-31T03:29:27.671Z,3.20
2018-08-31T03:30:27.666Z,3.30
2018-08-31T03:31:27.696Z,3.50
2018-08-31T03:32:27.637Z,4.30
2018-08-31T03:33:27.634Z,4.30
2018-08-31T03:34:27.612Z,4.40
2018-08-31T03:35:27.608Z,4.30
2018-08-31T03:36:27.636Z,3.60
2018-08-31T03:37:27.582Z,4.10
2018-08-31T03:38:27.578Z,3.90
2018-08-31T03:39:27.567Z,4.30
2018-08-31T03:40:27.545Z,4.20
2018-08-31T03:41:27.595Z,4.20
2018-08-31T03:42:27.523Z,3.90
2018-08-31T03:43:27.536Z,3.90
2018-08-31T03:44:27.501Z,3.80
2018-08-31T03:45:27.489Z,4.10
2018-08-31T03:46:27.524Z,3.70
2018-08-31T03:47:27.470Z,3.50
2018-08-31T03:48:27.460Z,3.60
2018-08-31T03:49:27.452Z,3.80
2018-08-31T03:50:27.437Z,3.50
2018-08-31T03:51:27.471Z,4.00
2018-08-31T03:52:27.411Z,3.90
2018-08-31T03:53:27.408Z,4.00
2018-08-31T03:54:27.393Z,3.50
2018-08-31T03:55:27.377Z,3.90
2018-08-31T03:56:27.411Z,3.70
2018-08-31T03:57:27.353Z,5.00
2018-08-31T03:58:27.348Z,4.00
2018-08-31T03:59:27.343Z,4.00
2018-08-31T04:00:27.319Z,3.90
2018-08-31T04:01:27.361Z,4.10
2018-08-31T04:02:27.297Z,4.70
2018-08-31T04:03:27.287Z,4.00
2018-08-31T04:04:27.279Z,3.60
2018-08-31T04:05:27.262Z,3.60
2018-08-31T04:06:27.300Z,3.80
2018-08-31T04:07:27.242Z,3.60
2018-08-31T04:08:27.234Z,3.70
2018-08-31T04:09:27.220Z,3.40
2018-08-31T04:10:27.209Z,4.10
2018-08-31T04:11:27.250Z,3.70
2018-08-31T04:12:27.184Z,3.80
2018-08-31T04:13:27.188Z,4.20
2018-08-31T04:14:27.161Z,3.60
2018-08-31T04:15:27.153Z,3.90
2018-08-31T04:16:27.209Z,3.70
2018-08-31T04:17:27.130Z,3.80
2018-08-31T04:18:27.118Z,3.80
2018-08-31T04:19:27.106Z,3.70
2018-08-31T04:20:27.093Z,3.90
2018-08-31T04:21:27.128Z,3.80
2018-08-31T04:22:27.071Z,4.00
2018-08-31T04:23:27.059Z,3.90
2018-08-31T04:24:27.060Z,4.30
2018-08-31T04:25:27.039Z,3.60
2018-08-31T04:26:27.073Z,4.20
2018-08-31T04:27:27.026Z,4.10
2018-08-31T04:28:27.002Z,4.00
2018-08-31T04:29:27.000Z,4.40
2018-08-31T04:30:26.998Z,3.90
2018-08-31T04:31:26.971Z,4.20
2018-08-31T04:32:27.012Z,4.10
2018-08-31T04:33:26.947Z,3.90
2018-08-31T04:34:26.934Z,4.10
2018-08-31T04:35:26.925Z,3.80
2018-08-31T04:36:26.921Z,4.40
2018-08-31T04:37:26.947Z,3.90
2018-08-31T04:38:26.894Z,4.30
2018-08-31T04:39:26.881Z,4.00
2018-08-31T04:40:26.868Z,4.30
2018-08-31T04:41:26.856Z,4.20
2018-08-31T04:42:26.890Z,4.10
2018-08-31T04:43:26.834Z,4.20
2018-08-31T04:44:26.823Z,4.60
2018-08-31T04:45:26.814Z,4.50
2018-08-31T04:46:26.806Z,4.40
2018-08-31T04:47:26.839Z,4.20
2018-08-31T04:48:26.791Z,4.70
2018-08-31T04:49:26.768Z,4.60
2018-08-31T04:50:26.852Z,4.50
2018-08-31T04:51:26.744Z,4.80
2018-08-31T04:52:26.782Z,4.40
2018-08-31T04:53:26.723Z,3.90
2018-08-31T04:54:26.710Z,4.30
2018-08-31T04:55:26.698Z,3.90
2018-08-31T04:56:26.686Z,4.20
2018-08-31T04:57:26.722Z,4.00
2018-08-31T04:58:26.664Z,4.10
2018-08-31T04:59:26.660Z,4.30
2018-08-31T05:00:26.648Z,4.60
2018-08-31T05:01:26.630Z,4.20
2018-08-31T05:02:26.674Z,4.50
2018-08-31T05:03:26.610Z,4.60
2018-08-31T05:04:26.596Z,4.10
2018-08-31T05:05:26.583Z,4.30
2018-08-31T05:06:26.576Z,4.40
2018-08-31T05:07:26.620Z,4.10
2018-08-31T05:08:26.551Z,4.10
2018-08-31T05:09:26.538Z,4.30
2018-08-31T05:10:26.535Z,4.10
2018-08-31T05:11:26.524Z,4.30
2018-08-31T05:12:26.551Z,3.90
2018-08-31T05:13:26.506Z,4.50
2018-08-31T05:14:26.486Z,4.40
2018-08-31T05:15:26.474Z,4.10
2018-08-31T05:16:26.459Z,4.50
2018-08-31T05:17:26.498Z,4.10
2018-08-31T05:18:26.439Z,4.10
2018-08-31T05:19:26.425Z,4.50
2018-08-31T05:20:26.415Z,4.30
2018-08-31T05:21:26.406Z,4.40
2018-08-31T05:22:26.461Z,4.40
2018-08-31T05:23:26.380Z,4.30
2018-08-31T05:24:26.370Z,4.40
2018-08-31T05:25:26.361Z,4.40
2018-08-31T05:26:26.347Z,4.50
2018-08-31T05:27:26.381Z,4.70
2018-08-31T05:28:26.447Z,4.60
2018-08-31T05:29:26.314Z,4.70
2018-08-31T05:30:26.334Z,4.80
2018-08-31T05:31:26.296Z,4.40
2018-08-31T05:32:26.324Z,4.70
2018-08-31T05:33:26.279Z,4.60
2018-08-31T05:34:26.255Z,4.90
2018-08-31T05:35:26.243Z,4.80
2018-08-31T05:36:26.234Z,4.50
2018-08-31T05:37:26.269Z,4.40
2018-08-31T05:38:26.213Z,4.40
2018-08-31T05:39:26.200Z,4.70
2018-08-31T05:40:26.189Z,4.40
2018-08-31T05:41:26.180Z,4.50
2018-08-31T05:42:26.214Z,4.10
2018-08-31T05:43:26.153Z,4.20
2018-08-31T05:44:26.143Z,4.50
2018-08-31T05:45:26.136Z,4.80
2018-08-31T05:46:26.122Z,4.60
2018-08-31T05:47:26.159Z,4.60
2018-08-31T05:48:26.104Z,4.20
2018-08-31T05:49:26.089Z,4.40
2018-08-31T05:50:26.077Z,4.40
2018-08-31T05:51:26.067Z,4.30
2018-08-31T05:52:26.099Z,4.70
2018-08-31T05:53:26.078Z,4.50
2018-08-31T05:54:26.029Z,4.50
2018-08-31T05:55:26.023Z,4.30
2018-08-31T05:56:26.010Z,4.40
2018-08-31T05:57:26.042Z,6.30
2018-08-31T05:58:26.016Z,4.80
2018-08-31T05:59:25.976Z,4.40
2018-08-31T06:00:25.961Z,4.50
2018-08-31T06:01:25.950Z,4.10
2018-08-31T06:02:25.990Z,4.50
2018-08-31T06:03:25.929Z,4.30
2018-08-31T06:04:25.922Z,4.70
2018-08-31T06:05:25.904Z,4.60
2018-08-31T06:06:25.898Z,4.50
2018-08-31T06:07:25.928Z,4.80
2018-08-31T06:08:25.874Z,4.60
2018-08-31T06:09:25.862Z,4.80
2018-08-31T06:10:25.848Z,4.40
2018-08-31T06:11:25.837Z,4.60
2018-08-31T06:12:25.870Z,4.40
2018-08-31T06:13:25.820Z,4.50
2018-08-31T06:14:25.817Z,4.70
2018-08-31T06:15:25.792Z,5.10
2018-08-31T06:16:25.780Z,4.90
2018-08-31T06:17:25.815Z,4.80
2018-08-31T06:18:25.758Z,4.40
2018-08-31T06:19:25.756Z,4.60
2018-08-31T06:20:25.756Z,4.50
2018-08-31T06:21:25.726Z,4.40
2018-08-31T06:22:25.777Z,4.80
2018-08-31T06:23:25.705Z,4.40
2018-08-31T06:24:25.689Z,4.30
2018-08-31T06:25:25.695Z,4.70
2018-08-31T06:26:25.666Z,4.60
2018-08-31T06:27:25.656Z,4.60
2018-08-31T06:28:25.692Z,4.50
2018-08-31T06:29:25.632Z,4.30
2018-08-31T06:30:25.621Z,4.40
2018-08-31T06:31:25.619Z,4.40
2018-08-31T06:32:25.648Z,4.70
2018-08-31T06:33:25.640Z,4.60
2018-08-31T06:34:25.588Z,4.50
2018-08-31T06:35:25.570Z,4.60
2018-08-31T06:36:25.561Z,4.70
2018-08-31T06:37:25.556Z,4.70
2018-08-31T06:38:25.579Z,4.80
2018-08-31T06:39:25.520Z,4.50
2018-08-31T06:40:25.530Z,4.90
2018-08-31T06:41:25.497Z,4.80
2018-08-31T06:42:25.489Z,4.90
2018-08-31T06:43:25.519Z,4.80
2018-08-31T06:44:25.463Z,4.80
2018-08-31T06:45:25.453Z,4.60
2018-08-31T06:46:25.481Z,4.60
2018-08-31T06:47:25.434Z,4.70
2018-08-31T06:48:25.475Z,4.80
2018-08-31T06:49:25.425Z,4.90
2018-08-31T06:50:25.395Z,4.60
2018-08-31T06:51:25.443Z,4.70
2018-08-31T06:52:25.408Z,4.80
2018-08-31T06:53:25.426Z,4.60
2018-08-31T06:54:25.368Z,4.60
2018-08-31T06:55:25.337Z,4.40
2018-08-31T06:56:25.326Z,4.70
2018-08-31T06:57:25.319Z,4.70
2018-08-31T06:58:25.350Z,4.60
2018-08-31T06:59:25.307Z,4.60
2018-08-31T07:00:25.279Z,4.60
2018-08-31T07:01:25.276Z,4.80
2018-08-31T07:02:25.261Z,4.30
2018-08-31T07:03:25.297Z,4.60
2018-08-31T07:04:25.238Z,4.70
2018-08-31T07:05:25.231Z,4.80
2018-08-31T07:06:25.214Z,5.00
2018-08-31T07:07:25.202Z,5.00
2018-08-31T07:08:25.534Z,4.80
2018-08-31T07:09:25.181Z,4.50
2018-08-31T07:10:25.167Z,4.70
2018-08-31T07:11:25.161Z,4.60
2018-08-31T07:12:25.195Z,12.30
2018-08-31T07:13:25.135Z,7.90
2018-08-31T07:14:25.170Z,5.30
2018-08-31T07:15:25.117Z,4.70
2018-08-31T07:16:25.100Z,4.70
2018-08-31T07:17:25.089Z,4.80
2018-08-31T07:18:25.079Z,5.10
2018-08-31T07:19:25.213Z,4.90
2018-08-31T07:20:25.060Z,4.80
2018-08-31T07:21:25.044Z,4.90
2018-08-31T07:22:25.036Z,5.20
2018-08-31T07:23:25.021Z,4.80
2018-08-31T07:24:25.052Z,4.50
2018-08-31T07:25:24.998Z,4.80
2018-08-31T07:26:25.094Z,4.50
2018-08-31T07:27:24.977Z,5.20
2018-08-31T07:28:24.982Z,4.80
2018-08-31T07:29:24.996Z,5.00
2018-08-31T07:30:24.941Z,4.90
2018-08-31T07:31:24.935Z,5.10
2018-08-31T07:32:24.926Z,4.50
2018-08-31T07:33:24.909Z,5.00
2018-08-31T07:34:24.949Z,4.40
2018-08-31T07:35:24.887Z,5.30
2018-08-31T07:36:24.936Z,5.50
2018-08-31T07:37:24.865Z,5.40
2018-08-31T07:38:24.853Z,5.30
2018-08-31T07:39:24.889Z,5.00
2018-08-31T07:40:24.830Z,5.10
2018-08-31T07:41:24.819Z,5.00
2018-08-31T07:42:24.852Z,5.00
2018-08-31T07:43:24.801Z,5.10
2018-08-31T07:44:24.836Z,5.00
2018-08-31T07:45:24.776Z,4.70
2018-08-31T07:46:24.761Z,4.80
2018-08-31T07:47:24.754Z,5.00
2018-08-31T07:48:24.738Z,4.80
2018-08-31T07:49:24.776Z,4.60
2018-08-31T07:50:24.721Z,4.70
2018-08-31T07:51:24.708Z,4.70
2018-08-31T07:52:24.694Z,4.90
2018-08-31T07:53:24.683Z,4.70
2018-08-31T07:54:24.722Z,4.50
2018-08-31T07:55:24.659Z,4.70
2018-08-31T07:56:24.651Z,4.80
2018-08-31T07:57:24.636Z,4.50
2018-08-31T07:58:24.625Z,4.40
2018-08-31T07:59:24.679Z,4.70
2018-08-31T08:00:24.603Z,4.30
2018-08-31T08:01:24.592Z,4.30
2018-08-31T08:02:24.579Z,4.40
2018-08-31T08:03:24.570Z,4.30
2018-08-31T08:04:24.607Z,4.10
2018-08-31T08:05:24.555Z,4.10
2018-08-31T08:06:24.534Z,4.80
2018-08-31T08:07:24.636Z,4.40
2018-08-31T08:08:24.514Z,4.50
2018-08-31T08:09:24.543Z,4.30
2018-08-31T08:10:24.488Z,4.50
2018-08-31T08:11:24.480Z,4.50
2018-08-31T08:12:24.463Z,4.50
2018-08-31T08:13:24.458Z,4.50
2018-08-31T08:14:24.488Z,4.30
2018-08-31T08:15:24.431Z,4.10
2018-08-31T08:16:24.422Z,4.30
2018-08-31T08:17:24.409Z,4.70
2018-08-31T08:18:24.396Z,4.30
2018-08-31T08:19:24.431Z,4.20
2018-08-31T08:20:24.387Z,4.50
2018-08-31T08:21:24.361Z,4.50
2018-08-31T08:22:24.352Z,4.30
2018-08-31T08:23:24.349Z,4.80
2018-08-31T08:24:24.388Z,4.70
2018-08-31T08:25:24.318Z,4.80
2018-08-31T08:26:24.304Z,5.20
2018-08-31T08:27:24.292Z,5.00
2018-08-31T08:28:24.365Z,4.90
2018-08-31T08:29:24.320Z,4.80
2018-08-31T08:30:24.263Z,4.80
2018-08-31T08:31:24.249Z,4.50
2018-08-31T08:32:24.236Z,4.60
2018-08-31T08:33:24.229Z,4.60
2018-08-31T08:34:24.261Z,4.60
2018-08-31T08:35:24.201Z,4.40
2018-08-31T08:36:24.189Z,4.50
2018-08-31T08:37:24.180Z,4.80
2018-08-31T08:38:24.167Z,5.00
2018-08-31T08:39:24.204Z,4.30
2018-08-31T08:40:24.143Z,4.70
2018-08-31T08:41:24.147Z,4.90
2018-08-31T08:42:24.155Z,4.40
2018-08-31T08:43:24.112Z,4.30
2018-08-31T08:44:24.145Z,4.50
2018-08-31T08:45:24.086Z,4.50
2018-08-31T08:46:24.078Z,4.70
2018-08-31T08:47:24.172Z,4.40
2018-08-31T08:48:24.157Z,4.50
2018-08-31T08:49:24.086Z,4.80
2018-08-31T08:50:24.032Z,5.00
2018-08-31T08:51:24.016Z,5.40
2018-08-31T08:52:24.012Z,6.10
2018-08-31T08:53:23.995Z,5.10
2018-08-31T08:54:24.033Z,4.90
2018-08-31T08:55:23.972Z,5.00
2018-08-31T08:56:23.961Z,4.60
2018-08-31T08:57:23.957Z,4.30
2018-08-31T08:58:24.015Z,4.70
2018-08-31T08:59:23.977Z,4.90
2018-08-31T09:00:23.916Z,4.50
2018-08-31T09:01:23.914Z,4.60
2018-08-31T09:02:23.892Z,4.70
2018-08-31T09:03:23.889Z,4.60
2018-08-31T09:04:23.918Z,4.20
2018-08-31T09:05:23.880Z,4.70
2018-08-31T09:06:23.848Z,4.30
2018-08-31T09:07:23.845Z,4.50
2018-08-31T09:08:23.839Z,4.40
2018-08-31T09:09:23.857Z,4.20
2018-08-31T09:10:23.803Z,4.70
2018-08-31T09:11:23.788Z,4.20
2018-08-31T09:12:23.787Z,4.60
2018-08-31T09:13:23.770Z,4.50
2018-08-31T09:14:23.801Z,5.00
2018-08-31T09:15:23.900Z,4.70
2018-08-31T09:16:23.735Z,4.50
2018-08-31T09:17:23.748Z,4.50
2018-08-31T09:18:23.738Z,4.60
2018-08-31T09:19:23.753Z,4.70
2018-08-31T09:20:23.783Z,4.20
2018-08-31T09:21:23.676Z,4.90
2018-08-31T09:22:23.674Z,4.80
2018-08-31T09:23:23.651Z,4.90
2018-08-31T09:24:23.698Z,4.80
2018-08-31T09:25:23.640Z,4.60
2018-08-31T09:26:23.620Z,4.50
2018-08-31T09:27:23.611Z,4.70
2018-08-31T09:28:23.601Z,4.50
2018-08-31T09:29:23.588Z,4.10
2018-08-31T09:30:23.624Z,4.30
2018-08-31T09:31:23.567Z,4.30
2018-08-31T09:32:23.552Z,4.40
2018-08-31T09:33:23.553Z,4.50
2018-08-31T09:34:23.530Z,4.60
2018-08-31T09:35:23.573Z,4.40
2018-08-31T09:36:23.510Z,4.10
2018-08-31T09:37:23.497Z,4.30
2018-08-31T09:38:23.551Z,4.20
2018-08-31T09:39:23.478Z,4.30
2018-08-31T09:40:23.508Z,4.50
2018-08-31T09:41:23.480Z,4.30
2018-08-31T09:42:23.442Z,4.50
2018-08-31T09:43:23.428Z,4.20
2018-08-31T09:44:23.419Z,4.40
2018-08-31T09:45:23.616Z,3.90
2018-08-31T09:46:23.396Z,4.40
2018-08-31T09:47:23.386Z,4.30
2018-08-31T09:48:23.373Z,4.10
2018-08-31T09:49:23.360Z,4.10
2018-08-31T09:50:23.397Z,3.90
2018-08-31T09:51:23.345Z,3.70
2018-08-31T09:52:23.332Z,4.30
2018-08-31T09:53:23.318Z,4.00
2018-08-31T09:54:23.308Z,3.70
2018-08-31T09:55:23.340Z,4.00
2018-08-31T09:56:23.280Z,3.70
2018-08-31T09:57:23.296Z,4.40
2018-08-31T09:58:23.263Z,4.20
2018-08-31T09:59:23.249Z,4.10
2018-08-31T10:00:23.312Z,4.20
2018-08-31T10:01:23.231Z,4.20
2018-08-31T10:02:23.220Z,4.50
2018-08-31T10:03:23.203Z,4.00
2018-08-31T10:04:23.195Z,3.90
2018-08-31T10:05:23.235Z,4.20
2018-08-31T10:06:23.187Z,4.10
2018-08-31T10:07:23.157Z,4.50
2018-08-31T10:08:23.146Z,4.40
2018-08-31T10:09:23.134Z,4.40
2018-08-31T10:10:23.170Z,4.20
2018-08-31T10:11:23.111Z,4.10
2018-08-31T10:12:23.104Z,4.00
2018-08-31T10:13:23.104Z,4.00
2018-08-31T10:14:23.085Z,4.20
2018-08-31T10:15:23.112Z,4.10
2018-08-31T10:16:23.055Z,4.40
2018-08-31T10:17:23.044Z,4.20
2018-08-31T10:18:23.036Z,4.40
2018-08-31T10:19:23.023Z,4.20
2018-08-31T10:20:23.061Z,4.40
2018-08-31T10:21:23.004Z,4.20
2018-08-31T10:22:22.989Z,4.10
2018-08-31T10:23:22.978Z,4.00
2018-08-31T10:24:22.973Z,4.20
2018-08-31T10:25:23.000Z,4.20
2018-08-31T10:26:22.950Z,5.10
2018-08-31T10:27:22.931Z,4.70
2018-08-31T10:28:22.921Z,4.50
2018-08-31T10:29:22.910Z,4.30
2018-08-31T10:30:22.942Z,4.70
2018-08-31T10:31:22.884Z,4.60
2018-08-31T10:32:22.877Z,4.20
2018-08-31T10:33:22.863Z,4.30
2018-08-31T10:34:22.853Z,4.60
2018-08-31T10:35:22.884Z,4.60
2018-08-31T10:36:22.830Z,5.00
2018-08-31T10:37:22.819Z,4.60
2018-08-31T10:38:22.809Z,4.60
2018-08-31T10:39:22.794Z,4.50
2018-08-31T10:40:22.854Z,4.60
2018-08-31T10:41:22.774Z,4.50
2018-08-31T10:42:22.764Z,4.80
2018-08-31T10:43:22.759Z,4.80
2018-08-31T10:44:22.742Z,4.90
2018-08-31T10:45:22.777Z,4.70
2018-08-31T10:46:22.724Z,4.60
2018-08-31T10:47:22.708Z,5.00
2018-08-31T10:48:22.696Z,4.40
2018-08-31T10:49:22.684Z,4.80
2018-08-31T10:50:22.720Z,4.60
2018-08-31T10:51:22.667Z,4.90
2018-08-31T10:52:22.651Z,5.30
2018-08-31T10:53:22.640Z,4.90
2018-08-31T10:54:22.628Z,5.00
2018-08-31T10:55:22.663Z,4.90
2018-08-31T10:56:22.608Z,5.00
2018-08-31T10:57:22.609Z,4.70
2018-08-31T10:58:22.585Z,5.00
2018-08-31T10:59:22.579Z,5.10
2018-08-31T11:00:22.607Z,4.90
2018-08-31T11:01:22.551Z,4.70
2018-08-31T11:02:22.539Z,5.00
2018-08-31T11:03:22.528Z,4.80
2018-08-31T11:04:22.517Z,4.90
2018-08-31T11:05:22.650Z,4.90
2018-08-31T11:06:22.497Z,4.90
2018-08-31T11:07:22.485Z,4.90
2018-08-31T11:08:22.472Z,4.70
2018-08-31T11:09:22.462Z,4.70
2018-08-31T11:10:22.503Z,4.90
2018-08-31T11:11:22.446Z,4.90
2018-08-31T11:12:22.437Z,4.70
2018-08-31T11:13:22.423Z,5.00
2018-08-31T11:14:22.406Z,4.80
2018-08-31T11:15:22.460Z,5.00
2018-08-31T11:16:22.430Z,4.70
2018-08-31T11:17:22.375Z,4.70
2018-08-31T11:18:22.366Z,4.80
2018-08-31T11:19:22.361Z,4.80
2018-08-31T11:20:22.337Z,5.00
2018-08-31T11:21:22.373Z,4.60
2018-08-31T11:22:22.313Z,5.30
2018-08-31T11:23:22.304Z,5.10
2018-08-31T11:24:22.294Z,5.30
2018-08-31T11:25:22.280Z,5.10
2018-08-31T11:26:22.324Z,5.80
2018-08-31T11:27:22.258Z,5.60
2018-08-31T11:28:22.252Z,5.30
2018-08-31T11:29:22.240Z,4.90
2018-08-31T11:30:22.225Z,5.50
2018-08-31T11:31:22.262Z,5.40
2018-08-31T11:32:22.208Z,5.10
2018-08-31T11:33:22.191Z,5.10
2018-08-31T11:34:22.181Z,5.10
2018-08-31T11:35:22.173Z,5.00
2018-08-31T11:36:22.204Z,5.60
2018-08-31T11:37:22.146Z,5.00
2018-08-31T11:38:22.135Z,5.10
2018-08-31T11:39:22.125Z,5.40
2018-08-31T11:40:22.117Z,5.60
2018-08-31T11:41:22.145Z,5.20
2018-08-31T11:42:22.089Z,5.30
2018-08-31T11:43:22.104Z,5.20
2018-08-31T11:44:22.069Z,5.40
2018-08-31T11:45:22.060Z,5.20
2018-08-31T11:46:22.089Z,5.50
2018-08-31T11:47:22.033Z,5.30
2018-08-31T11:48:22.026Z,5.30
2018-08-31T11:49:22.012Z,5.10
2018-08-31T11:50:22.000Z,5.00
2018-08-31T11:51:22.035Z,5.70
2018-08-31T11:52:21.981Z,5.40
2018-08-31T11:53:21.964Z,4.70
2018-08-31T11:54:21.952Z,5.60
2018-08-31T11:55:22.058Z,5.60
2018-08-31T11:56:21.984Z,5.00
2018-08-31T11:57:21.922Z,5.10
2018-08-31T11:58:21.948Z,5.60
2018-08-31T11:59:21.899Z,5.20
2018-08-31T12:00:21.883Z,5.70
2018-08-31T12:01:21.971Z,5.10
2018-08-31T12:02:21.864Z,5.60
2018-08-31T12:03:21.856Z,5.00
2018-08-31T12:04:21.843Z,5.50
2018-08-31T12:05:21.827Z,4.90
2018-08-31T12:06:21.859Z,5.00
2018-08-31T12:07:21.809Z,4.80
2018-08-31T12:08:21.793Z,5.00
2018-08-31T12:09:21.783Z,5.10
2018-08-31T12:10:21.774Z,4.60
2018-08-31T12:11:21.804Z,5.60
2018-08-31T12:12:21.750Z,5.30
2018-08-31T12:13:21.743Z,5.00
2018-08-31T12:14:21.723Z,5.00
2018-08-31T12:15:21.712Z,5.60
2018-08-31T12:16:21.747Z,5.40
2018-08-31T12:17:21.695Z,5.10
2018-08-31T12:18:21.682Z,5.10
2018-08-31T12:19:21.666Z,5.00
2018-08-31T12:20:21.661Z,5.20
2018-08-31T12:21:21.821Z,5.40
2018-08-31T12:22:21.632Z,5.50
2018-08-31T12:23:21.623Z,5.40
2018-08-31T12:24:21.610Z,5.90
2018-08-31T12:25:21.598Z,5.60
2018-08-31T12:26:21.630Z,6.00
2018-08-31T12:27:21.576Z,5.80
2018-08-31T12:28:21.602Z,6.10
2018-08-31T12:29:21.555Z,5.70
2018-08-31T12:30:21.546Z,5.30
2018-08-31T12:31:21.584Z,5.20
2018-08-31T12:32:21.519Z,5.30
2018-08-31T12:33:21.506Z,5.60
2018-08-31T12:34:21.500Z,5.00
2018-08-31T12:35:21.485Z,5.70
2018-08-31T12:36:21.518Z,5.00
2018-08-31T12:37:21.461Z,4.80
2018-08-31T12:38:21.452Z,5.00
2018-08-31T12:39:21.450Z,4.70
2018-08-31T12:40:21.426Z,6.10
2018-08-31T12:41:21.460Z,5.40
2018-08-31T12:42:21.403Z,5.10
2018-08-31T12:43:21.390Z,5.60
2018-08-31T12:44:21.395Z,5.00
2018-08-31T12:45:21.369Z,5.10
2018-08-31T12:46:21.401Z,5.60
2018-08-31T12:47:21.346Z,5.10
2018-08-31T12:48:21.338Z,5.10
2018-08-31T12:49:21.322Z,5.80
2018-08-31T12:50:21.319Z,5.60
2018-08-31T12:51:21.349Z,7.60
2018-08-31T12:52:21.289Z,4.80
2018-08-31T12:53:21.282Z,4.70
2018-08-31T12:54:21.269Z,4.80
2018-08-31T12:55:21.256Z,4.80
2018-08-31T12:56:21.290Z,4.80
2018-08-31T12:57:21.239Z,5.40
2018-08-31T12:58:21.220Z,5.60
2018-08-31T12:59:21.219Z,4.80
2018-08-31T13:00:21.199Z,4.70
2018-08-31T13:01:21.235Z,4.70
2018-08-31T13:02:21.176Z,4.60
2018-08-31T13:03:21.203Z,5.60
2018-08-31T13:04:21.152Z,4.10
2018-08-31T13:05:21.146Z,5.00
2018-08-31T13:06:21.188Z,4.90
2018-08-31T13:07:21.117Z,5.10
2018-08-31T13:08:21.106Z,4.90
2018-08-31T13:09:21.095Z,4.80
2018-08-31T13:10:21.084Z,5.60
2018-08-31T13:11:21.073Z,4.70
2018-08-31T13:12:21.106Z,4.50
2018-08-31T13:13:21.049Z,4.30
2018-08-31T13:14:21.047Z,5.60
2018-08-31T13:15:21.027Z,5.40
2018-08-31T13:16:21.017Z,4.90
2018-08-31T13:17:21.052Z,4.70
2018-08-31T13:18:20.994Z,4.90
2018-08-31T13:19:20.981Z,5.10
2018-08-31T13:20:20.973Z,4.60
2018-08-31T13:21:20.961Z,4.90
2018-08-31T13:22:20.999Z,4.00
2018-08-31T13:23:20.939Z,4.60
2018-08-31T13:24:20.926Z,4.40
2018-08-31T13:25:20.982Z,5.70
2018-08-31T13:26:20.944Z,4.40
2018-08-31T13:27:20.945Z,4.40
2018-08-31T13:28:20.889Z,3.80
2018-08-31T13:29:20.870Z,4.00
2018-08-31T13:30:20.865Z,3.90
2018-08-31T13:31:20.856Z,4.30
2018-08-31T13:32:20.892Z,4.00
2018-08-31T13:33:20.830Z,4.30
2018-08-31T13:34:20.812Z,4.20
2018-08-31T13:35:20.897Z,4.20
2018-08-31T13:36:20.791Z,4.00
2018-08-31T13:37:20.941Z,4.20
2018-08-31T13:38:20.866Z,3.90
2018-08-31T13:39:20.765Z,4.40
2018-08-31T13:40:20.752Z,3.80
2018-08-31T13:41:20.748Z,3.80
2018-08-31T13:42:20.774Z,4.20
2018-08-31T13:43:20.712Z,4.10
2018-08-31T13:44:20.704Z,4.30
2018-08-31T13:45:20.689Z,4.50
2018-08-31T13:46:20.995Z,4.00
2018-08-31T13:47:20.711Z,4.20
2018-08-31T13:48:20.656Z,4.00
2018-08-31T13:49:20.643Z,4.20
2018-08-31T13:50:20.632Z,4.20
2018-08-31T13:51:20.619Z,4.40
2018-08-31T13:52:20.659Z,4.00
2018-08-31T13:53:20.595Z,4.00
2018-08-31T13:54:20.589Z,4.10
2018-08-31T13:55:20.575Z,4.00
2018-08-31T13:56:20.564Z,4.00
2018-08-31T13:57:20.596Z,4.10
2018-08-31T13:58:20.546Z,4.30
2018-08-31T13:59:20.528Z,4.00
2018-08-31T14:00:20.522Z,4.00
2018-08-31T14:01:20.515Z,4.30
2018-08-31T14:02:20.542Z,4.70
2018-08-31T14:03:20.483Z,4.30
2018-08-31T14:04:20.482Z,4.50
2018-08-31T14:05:20.457Z,4.70
2018-08-31T14:06:20.457Z,4.20
2018-08-31T14:07:20.511Z,4.30
2018-08-31T14:08:20.438Z,4.40
2018-08-31T14:09:20.415Z,4.20
2018-08-31T14:10:20.400Z,4.20
2018-08-31T14:11:20.394Z,4.00
2018-08-31T14:12:20.424Z,3.90
2018-08-31T14:13:20.367Z,4.50
2018-08-31T14:14:20.355Z,4.30
2018-08-31T14:15:20.343Z,3.90
2018-08-31T14:16:20.337Z,4.00
2018-08-31T14:17:20.369Z,4.10
2018-08-31T14:18:20.314Z,4.10